sensor_id;sensor_type;location;lat;lon;timestamp;temperature;humidity
64499;SHT31;51087;55.718;21.122;2023-04-03T00:01:23;-1.70;78.01
64499;SHT31;51087;55.718;21.122;2023-04-03T00:03:48;-1.70;78.39
64499;SHT31;51087;55.718;21.122;2023-04-03T00:06:15;-1.70;78.38
64499;SHT31;51087;55.718;21.122;2023-04-03T00:08:40;-1.79;78.52
64499;SHT31;51087;55.718;21.122;2023-04-03T00:11:06;-1.88;79.10
64499;SHT31;51087;55.718;21.122;2023-04-03T00:13:33;-1.93;79.20
64499;SHT31;51087;55.718;21.122;2023-04-03T00:15:59;-1.92;79.06
64499;SHT31;51087;55.718;21.122;2023-04-03T00:18:24;-1.89;79.00
64499;SHT31;51087;55.718;21.122;2023-04-03T00:20:50;-1.95;79.42
64499;SHT31;51087;55.718;21.122;2023-04-03T00:23:15;-2.03;79.69
64499;SHT31;51087;55.718;21.122;2023-04-03T00:25:41;-2.02;79.91
64499;SHT31;51087;55.718;21.122;2023-04-03T00:28:07;-1.91;79.37
64499;SHT31;51087;55.718;21.122;2023-04-03T00:30:32;-1.98;79.57
64499;SHT31;51087;55.718;21.122;2023-04-03T00:32:58;-1.99;79.70
64499;SHT31;51087;55.718;21.122;2023-04-03T00:35:24;-2.06;80.26
64499;SHT31;51087;55.718;21.122;2023-04-03T00:37:53;-2.14;80.46
64499;SHT31;51087;55.718;21.122;2023-04-03T00:40:20;-2.14;81.00
64499;SHT31;51087;55.718;21.122;2023-04-03T00:42:48;-2.26;81.16
64499;SHT31;51087;55.718;21.122;2023-04-03T00:45:38;-2.23;81.52
64499;SHT31;51087;55.718;21.122;2023-04-03T00:48:06;-2.36;82.00
64499;SHT31;51087;55.718;21.122;2023-04-03T00:50:36;-2.44;82.64
64499;SHT31;51087;55.718;21.122;2023-04-03T00:53:03;-2.58;82.92
64499;SHT31;51087;55.718;21.122;2023-04-03T00:55:30;-2.57;83.45
64499;SHT31;51087;55.718;21.122;2023-04-03T00:57:57;-2.46;83.47
64499;SHT31;51087;55.718;21.122;2023-04-03T01:00:23;-2.40;82.86
64499;SHT31;51087;55.718;21.122;2023-04-03T01:02:50;-2.46;83.44
64499;SHT31;51087;55.718;21.122;2023-04-03T01:05:16;-2.44;83.21
64499;SHT31;51087;55.718;21.122;2023-04-03T01:07:43;-2.48;83.63
64499;SHT31;51087;55.718;21.122;2023-04-03T01:10:11;-2.36;82.94
64499;SHT31;51087;55.718;21.122;2023-04-03T01:12:40;-2.44;83.41
64499;SHT31;51087;55.718;21.122;2023-04-03T01:15:09;-2.46;83.51
64499;SHT31;51087;55.718;21.122;2023-04-03T01:22:55;-2.43;83.40
64499;SHT31;51087;55.718;21.122;2023-04-03T01:25:22;-2.47;83.81
64499;SHT31;51087;55.718;21.122;2023-04-03T01:27:48;-2.60;84.34
64499;SHT31;51087;55.718;21.122;2023-04-03T01:30:17;-2.65;84.67
64499;SHT31;51087;55.718;21.122;2023-04-03T01:32:42;-2.61;84.75
64499;SHT31;51087;55.718;21.122;2023-04-03T01:35:09;-2.60;84.29
64499;SHT31;51087;55.718;21.122;2023-04-03T01:37:34;-2.65;84.69
64499;SHT31;51087;55.718;21.122;2023-04-03T01:40:00;-2.75;84.89
64499;SHT31;51087;55.718;21.122;2023-04-03T01:42:25;-2.71;84.96
64499;SHT31;51087;55.718;21.122;2023-04-03T01:44:51;-2.72;85.17
64499;SHT31;51087;55.718;21.122;2023-04-03T01:47:16;-2.82;85.41
64499;SHT31;51087;55.718;21.122;2023-04-03T01:49:41;-2.88;85.57
64499;SHT31;51087;55.718;21.122;2023-04-03T01:52:07;-2.86;85.81
64499;SHT31;51087;55.718;21.122;2023-04-03T01:54:32;-2.88;85.61
64499;SHT31;51087;55.718;21.122;2023-04-03T01:56:58;-2.92;85.78
64499;SHT31;51087;55.718;21.122;2023-04-03T01:59:23;-2.86;85.49
64499;SHT31;51087;55.718;21.122;2023-04-03T02:01:49;-2.76;85.47
64499;SHT31;51087;55.718;21.122;2023-04-03T02:04:14;-2.89;85.54
64499;SHT31;51087;55.718;21.122;2023-04-03T02:06:40;-2.86;85.65
64499;SHT31;51087;55.718;21.122;2023-04-03T02:09:05;-2.75;85.09
64499;SHT31;51087;55.718;21.122;2023-04-03T02:11:31;-2.75;84.74
64499;SHT31;51087;55.718;21.122;2023-04-03T02:13:56;-2.65;84.75
64499;SHT31;51087;55.718;21.122;2023-04-03T02:16:22;-2.62;84.04
64499;SHT31;51087;55.718;21.122;2023-04-03T02:18:47;-2.71;84.69
64499;SHT31;51087;55.718;21.122;2023-04-03T02:21:13;-2.54;83.80
64499;SHT31;51087;55.718;21.122;2023-04-03T02:23:38;-2.50;83.60
64499;SHT31;51087;55.718;21.122;2023-04-03T02:26:09;-2.74;84.24
64499;SHT31;51087;55.718;21.122;2023-04-03T02:28:35;-2.58;84.02
64499;SHT31;51087;55.718;21.122;2023-04-03T02:31:01;-2.43;83.54
64499;SHT31;51087;55.718;21.122;2023-04-03T02:33:27;-2.62;83.91
64499;SHT31;51087;55.718;21.122;2023-04-03T02:35:54;-2.65;84.22
64499;SHT31;51087;55.718;21.122;2023-04-03T02:38:20;-2.57;83.91
64499;SHT31;51087;55.718;21.122;2023-04-03T02:40:45;-2.56;84.09
64499;SHT31;51087;55.718;21.122;2023-04-03T02:43:10;-2.71;84.45
64499;SHT31;51087;55.718;21.122;2023-04-03T02:45:36;-2.64;84.32
64499;SHT31;51087;55.718;21.122;2023-04-03T02:48:01;-2.64;84.35
64499;SHT31;51087;55.718;21.122;2023-04-03T02:50:27;-2.74;84.51
64499;SHT31;51087;55.718;21.122;2023-04-03T02:52:52;-2.60;84.17
64499;SHT31;51087;55.718;21.122;2023-04-03T02:55:18;-2.57;83.76
64499;SHT31;51087;55.718;21.122;2023-04-03T02:57:43;-2.60;83.84
64499;SHT31;51087;55.718;21.122;2023-04-03T03:00:09;-2.48;83.61
64499;SHT31;51087;55.718;21.122;2023-04-03T03:02:35;-2.56;83.84
64499;SHT31;51087;55.718;21.122;2023-04-03T03:05:00;-2.53;83.71
64499;SHT31;51087;55.718;21.122;2023-04-03T03:07:25;-2.48;83.80
64499;SHT31;51087;55.718;21.122;2023-04-03T03:09:51;-2.50;83.77
64499;SHT31;51087;55.718;21.122;2023-04-03T03:12:16;-2.58;84.02
64499;SHT31;51087;55.718;21.122;2023-04-03T03:14:47;-2.54;83.66
64499;SHT31;51087;55.718;21.122;2023-04-03T03:17:12;-2.62;84.08
64499;SHT31;51087;55.718;21.122;2023-04-03T03:19:38;-2.58;84.08
64499;SHT31;51087;55.718;21.122;2023-04-03T03:22:03;-2.44;83.50
64499;SHT31;51087;55.718;21.122;2023-04-03T03:24:28;-2.36;83.36
64499;SHT31;51087;55.718;21.122;2023-04-03T03:26:54;-2.43;83.42
64499;SHT31;51087;55.718;21.122;2023-04-03T03:29:20;-2.44;83.72
64499;SHT31;51087;55.718;21.122;2023-04-03T03:31:45;-2.58;84.06
64499;SHT31;51087;55.718;21.122;2023-04-03T03:34:11;-2.58;84.35
64499;SHT31;51087;55.718;21.122;2023-04-03T03:36:37;-2.71;84.76
64499;SHT31;51087;55.718;21.122;2023-04-03T03:39:02;-2.75;85.27
64499;SHT31;51087;55.718;21.122;2023-04-03T03:41:28;-2.64;84.82
64499;SHT31;51087;55.718;21.122;2023-04-03T03:43:53;-2.76;85.19
64499;SHT31;51087;55.718;21.122;2023-04-03T03:46:18;-2.72;85.35
64499;SHT31;51087;55.718;21.122;2023-04-03T03:48:44;-2.64;85.04
64499;SHT31;51087;55.718;21.122;2023-04-03T03:51:10;-2.64;85.04
64499;SHT31;51087;55.718;21.122;2023-04-03T03:53:35;-2.58;85.11
64499;SHT31;51087;55.718;21.122;2023-04-03T03:56:00;-2.61;85.00
64499;SHT31;51087;55.718;21.122;2023-04-03T03:58:26;-2.60;84.95
64499;SHT31;51087;55.718;21.122;2023-04-03T04:00:51;-2.64;85.14
64499;SHT31;51087;55.718;21.122;2023-04-03T04:03:17;-2.76;85.31
64499;SHT31;51087;55.718;21.122;2023-04-03T04:05:43;-2.75;85.63
64499;SHT31;51087;55.718;21.122;2023-04-03T04:08:11;-2.76;85.34
64499;SHT31;51087;55.718;21.122;2023-04-03T04:10:37;-2.82;85.86
64499;SHT31;51087;55.718;21.122;2023-04-03T04:13:03;-2.88;86.36
64499;SHT31;51087;55.718;21.122;2023-04-03T04:15:28;-2.78;85.76
64499;SHT31;51087;55.718;21.122;2023-04-03T04:17:54;-2.71;85.84
64499;SHT31;51087;55.718;21.122;2023-04-03T04:20:20;-2.64;85.73
64499;SHT31;51087;55.718;21.122;2023-04-03T04:22:46;-2.65;85.71
64499;SHT31;51087;55.718;21.122;2023-04-03T04:25:11;-2.61;85.49
64499;SHT31;51087;55.718;21.122;2023-04-03T04:27:37;-2.65;85.82
64499;SHT31;51087;55.718;21.122;2023-04-03T04:30:03;-2.60;85.81
64499;SHT31;51087;55.718;21.122;2023-04-03T04:32:29;-2.53;85.59
64499;SHT31;51087;55.718;21.122;2023-04-03T04:34:55;-2.58;85.63
64499;SHT31;51087;55.718;21.122;2023-04-03T04:37:20;-2.64;86.03
64499;SHT31;51087;55.718;21.122;2023-04-03T04:39:46;-2.57;85.83
64499;SHT31;51087;55.718;21.122;2023-04-03T04:42:11;-2.50;85.84
64499;SHT31;51087;55.718;21.122;2023-04-03T04:44:38;-2.44;85.61
64499;SHT31;51087;55.718;21.122;2023-04-03T04:47:04;-2.40;85.35
64499;SHT31;51087;55.718;21.122;2023-04-03T04:49:30;-2.36;85.59
64499;SHT31;51087;55.718;21.122;2023-04-03T04:51:55;-2.27;85.32
64499;SHT31;51087;55.718;21.122;2023-04-03T04:54:21;-2.29;85.33
64499;SHT31;51087;55.718;21.122;2023-04-03T04:56:46;-2.25;85.35
64499;SHT31;51087;55.718;21.122;2023-04-03T04:59:12;-2.11;84.70
64499;SHT31;51087;55.718;21.122;2023-04-03T05:01:37;-1.99;84.68
64499;SHT31;51087;55.718;21.122;2023-04-03T05:04:03;-1.82;83.55
64499;SHT31;51087;55.718;21.122;2023-04-03T05:06:28;-1.86;83.92
64499;SHT31;51087;55.718;21.122;2023-04-03T05:08:55;-1.86;84.19
64499;SHT31;51087;55.718;21.122;2023-04-03T05:11:21;-1.79;84.07
64499;SHT31;51087;55.718;21.122;2023-04-03T05:13:46;-1.68;83.78
64499;SHT31;51087;55.718;21.122;2023-04-03T05:16:12;-1.60;83.48
64499;SHT31;51087;55.718;21.122;2023-04-03T05:18:38;-1.68;83.93
64499;SHT31;51087;55.718;21.122;2023-04-03T05:21:03;-1.64;83.93
64499;SHT31;51087;55.718;21.122;2023-04-03T05:23:29;-1.60;83.83
64499;SHT31;51087;55.718;21.122;2023-04-03T05:25:55;-1.44;83.30
64499;SHT31;51087;55.718;21.122;2023-04-03T05:28:20;-1.29;82.59
64499;SHT31;51087;55.718;21.122;2023-04-03T05:30:53;-0.91;81.64
64499;SHT31;51087;55.718;21.122;2023-04-03T05:33:19;-0.88;81.21
64499;SHT31;51087;55.718;21.122;2023-04-03T05:35:45;-0.81;80.98
64499;SHT31;51087;55.718;21.122;2023-04-03T05:38:10;-0.81;80.88
64499;SHT31;51087;55.718;21.122;2023-04-03T05:40:36;-0.78;81.09
64499;SHT31;51087;55.718;21.122;2023-04-03T05:43:02;-0.72;80.79
64499;SHT31;51087;55.718;21.122;2023-04-03T05:45:27;-0.65;80.40
64499;SHT31;51087;55.718;21.122;2023-04-03T05:47:53;-0.57;80.17
64499;SHT31;51087;55.718;21.122;2023-04-03T05:50:18;-0.58;79.92
64499;SHT31;51087;55.718;21.122;2023-04-03T05:52:49;-0.51;79.73
64499;SHT31;51087;55.718;21.122;2023-04-03T05:55:18;-0.42;79.32
64499;SHT31;51087;55.718;21.122;2023-04-03T05:57:43;-0.31;79.30
64499;SHT31;51087;55.718;21.122;2023-04-03T06:00:15;-0.23;78.70
64499;SHT31;51087;55.718;21.122;2023-04-03T06:02:41;-0.16;78.60
64499;SHT31;51087;55.718;21.122;2023-04-03T06:05:07;-0.07;77.64
64499;SHT31;51087;55.718;21.122;2023-04-03T06:07:33;-0.06;77.79
64499;SHT31;51087;55.718;21.122;2023-04-03T06:10:00;0.04;77.65
64499;SHT31;51087;55.718;21.122;2023-04-03T06:12:26;0.11;77.47
64499;SHT31;51087;55.718;21.122;2023-04-03T06:14:54;0.19;77.17
64499;SHT31;51087;55.718;21.122;2023-04-03T06:17:19;0.26;76.57
64499;SHT31;51087;55.718;21.122;2023-04-03T06:19:45;0.41;76.28
64499;SHT31;51087;55.718;21.122;2023-04-03T06:22:11;0.46;75.90
64499;SHT31;51087;55.718;21.122;2023-04-03T06:24:37;0.60;75.32
64499;SHT31;51087;55.718;21.122;2023-04-03T06:27:04;0.70;75.13
64499;SHT31;51087;55.718;21.122;2023-04-03T06:29:29;0.73;75.11
64499;SHT31;51087;55.718;21.122;2023-04-03T06:31:55;0.77;74.92
64499;SHT31;51087;55.718;21.122;2023-04-03T06:34:21;0.84;73.62
64499;SHT31;51087;55.718;21.122;2023-04-03T06:36:46;0.94;73.76
64499;SHT31;51087;55.718;21.122;2023-04-03T06:39:17;0.98;73.78
64499;SHT31;51087;55.718;21.122;2023-04-03T06:41:45;1.09;73.53
64499;SHT31;51087;55.718;21.122;2023-04-03T06:44:11;1.18;72.73
64499;SHT31;51087;55.718;21.122;2023-04-03T06:46:38;1.32;72.41
64499;SHT31;51087;55.718;21.122;2023-04-03T06:49:04;1.32;71.79
64499;SHT31;51087;55.718;21.122;2023-04-03T06:51:32;1.43;71.53
64499;SHT31;51087;55.718;21.122;2023-04-03T06:53:59;1.48;70.62
64499;SHT31;51087;55.718;21.122;2023-04-03T06:56:25;1.60;70.25
64499;SHT31;51087;55.718;21.122;2023-04-03T06:58:51;1.52;70.60
64499;SHT31;51087;55.718;21.122;2023-04-03T07:01:19;1.53;71.01
64499;SHT31;51087;55.718;21.122;2023-04-03T07:03:45;1.60;70.85
64499;SHT31;51087;55.718;21.122;2023-04-03T07:06:12;1.74;70.51
64499;SHT31;51087;55.718;21.122;2023-04-03T07:08:38;1.81;69.86
64499;SHT31;51087;55.718;21.122;2023-04-03T07:11:05;1.90;69.70
64499;SHT31;51087;55.718;21.122;2023-04-03T07:13:31;1.93;69.21
64499;SHT31;51087;55.718;21.122;2023-04-03T07:15:57;1.98;69.09
64499;SHT31;51087;55.718;21.122;2023-04-03T07:18:23;2.08;68.29
64499;SHT31;51087;55.718;21.122;2023-04-03T07:20:49;2.14;67.80
64499;SHT31;51087;55.718;21.122;2023-04-03T07:23:14;2.20;67.21
64499;SHT31;51087;55.718;21.122;2023-04-03T07:25:47;2.25;65.58
64499;SHT31;51087;55.718;21.122;2023-04-03T07:28:13;2.20;65.57
64499;SHT31;51087;55.718;21.122;2023-04-03T07:30:54;2.21;64.79
64499;SHT31;51087;55.718;21.122;2023-04-03T07:33:23;2.26;65.86
64499;SHT31;51087;55.718;21.122;2023-04-03T07:35:49;2.31;65.10
64499;SHT31;51087;55.718;21.122;2023-04-03T07:38:14;2.26;64.77
64499;SHT31;51087;55.718;21.122;2023-04-03T07:40:48;2.36;64.76
64499;SHT31;51087;55.718;21.122;2023-04-03T07:43:15;2.38;63.73
64499;SHT31;51087;55.718;21.122;2023-04-03T07:45:42;2.39;63.91
64499;SHT31;51087;55.718;21.122;2023-04-03T07:48:11;2.48;63.93
64499;SHT31;51087;55.718;21.122;2023-04-03T07:50:39;2.63;64.31
64499;SHT31;51087;55.718;21.122;2023-04-03T07:53:05;2.73;63.84
64499;SHT31;51087;55.718;21.122;2023-04-03T07:55:32;2.77;62.91
64499;SHT31;51087;55.718;21.122;2023-04-03T07:57:58;2.66;63.15
64499;SHT31;51087;55.718;21.122;2023-04-03T08:00:23;2.76;63.52
64499;SHT31;51087;55.718;21.122;2023-04-03T08:02:49;2.81;61.84
64499;SHT31;51087;55.718;21.122;2023-04-03T08:05:18;2.83;61.00
64499;SHT31;51087;55.718;21.122;2023-04-03T08:07:43;2.94;61.43
64499;SHT31;51087;55.718;21.122;2023-04-03T08:10:09;3.04;60.78
64499;SHT31;51087;55.718;21.122;2023-04-03T08:12:35;3.07;60.65
64499;SHT31;51087;55.718;21.122;2023-04-03T08:15:02;3.15;60.10
64499;SHT31;51087;55.718;21.122;2023-04-03T08:17:28;3.26;60.58
64499;SHT31;51087;55.718;21.122;2023-04-03T08:19:53;3.49;60.57
64499;SHT31;51087;55.718;21.122;2023-04-03T08:22:19;3.73;59.80
64499;SHT31;51087;55.718;21.122;2023-04-03T08:24:45;3.79;59.26
64499;SHT31;51087;55.718;21.122;2023-04-03T08:27:10;4.03;58.63
64499;SHT31;51087;55.718;21.122;2023-04-03T08:29:36;4.55;57.08
64499;SHT31;51087;55.718;21.122;2023-04-03T08:32:03;5.51;53.97
64499;SHT31;51087;55.718;21.122;2023-04-03T08:34:29;6.52;50.88
64499;SHT31;51087;55.718;21.122;2023-04-03T08:36:56;7.20;48.21
64499;SHT31;51087;55.718;21.122;2023-04-03T08:39:21;7.42;46.96
64499;SHT31;51087;55.718;21.122;2023-04-03T08:41:47;8.27;46.27
64499;SHT31;51087;55.718;21.122;2023-04-03T08:44:47;8.38;45.39
64499;SHT31;51087;55.718;21.122;2023-04-03T08:47:51;8.61;43.50
64499;SHT31;51087;55.718;21.122;2023-04-03T08:50:26;9.32;43.35
64499;SHT31;51087;55.718;21.122;2023-04-03T08:52:56;10.78;40.55
64499;SHT31;51087;55.718;21.122;2023-04-03T08:55:29;10.95;40.18
64499;SHT31;51087;55.718;21.122;2023-04-03T08:58:02;11.03;38.86
64499;SHT31;51087;55.718;21.122;2023-04-03T09:00:38;11.31;38.01
64499;SHT31;51087;55.718;21.122;2023-04-03T09:03:12;11.57;36.95
64499;SHT31;51087;55.718;21.122;2023-04-03T09:05:48;13.66;34.60
64499;SHT31;51087;55.718;21.122;2023-04-03T09:08:30;11.96;36.24
64499;SHT31;51087;55.718;21.122;2023-04-03T09:11:21;11.34;38.39
64499;SHT31;51087;55.718;21.122;2023-04-03T09:16:58;13.84;33.88
64499;SHT31;51087;55.718;21.122;2023-04-03T09:21:57;12.89;33.75
64499;SHT31;51087;55.718;21.122;2023-04-03T09:24:23;12.55;34.31
64499;SHT31;51087;55.718;21.122;2023-04-03T09:26:59;11.74;34.26
64499;SHT31;51087;55.718;21.122;2023-04-03T09:29:27;12.06;35.66
64499;SHT31;51087;55.718;21.122;2023-04-03T09:31:57;13.71;32.81
64499;SHT31;51087;55.718;21.122;2023-04-03T09:34:38;14.66;30.98
64499;SHT31;51087;55.718;21.122;2023-04-03T09:37:06;14.98;31.04
64499;SHT31;51087;55.718;21.122;2023-04-03T09:39:49;14.81;31.22
64499;SHT31;51087;55.718;21.122;2023-04-03T09:42:25;15.73;30.64
64499;SHT31;51087;55.718;21.122;2023-04-03T09:44:58;16.59;29.70
64499;SHT31;51087;55.718;21.122;2023-04-03T09:47:29;16.11;29.15
64499;SHT31;51087;55.718;21.122;2023-04-03T09:52:45;16.18;30.15
64499;SHT31;51087;55.718;21.122;2023-04-03T09:55:17;15.05;30.34
64499;SHT31;51087;55.718;21.122;2023-04-03T09:57:44;12.60;33.46
64499;SHT31;51087;55.718;21.122;2023-04-03T10:00:21;10.40;37.00
64499;SHT31;51087;55.718;21.122;2023-04-03T10:02:51;8.96;39.67
64499;SHT31;51087;55.718;21.122;2023-04-03T10:05:35;9.07;40.10
64499;SHT31;51087;55.718;21.122;2023-04-03T10:08:20;7.87;42.27
64499;SHT31;51087;55.718;21.122;2023-04-03T10:10:47;8.41;43.30
64499;SHT31;51087;55.718;21.122;2023-04-03T10:13:18;11.61;36.95
64499;SHT31;51087;55.718;21.122;2023-04-03T10:18:37;17.25;29.05
64499;SHT31;51087;55.718;21.122;2023-04-03T10:21:12;18.69;26.23
64499;SHT31;51087;55.718;21.122;2023-04-03T10:23:41;16.66;27.74
64499;SHT31;51087;55.718;21.122;2023-04-03T10:29:14;10.48;37.25
64499;SHT31;51087;55.718;21.122;2023-04-03T10:34:31;8.31;41.67
64499;SHT31;51087;55.718;21.122;2023-04-03T10:42:46;13.97;31.49
64499;SHT31;51087;55.718;21.122;2023-04-03T10:45:22;14.53;30.75
64499;SHT31;51087;55.718;21.122;2023-04-03T10:56:26;10.78;35.58
64499;SHT31;51087;55.718;21.122;2023-04-03T11:01:52;15.11;29.65
64499;SHT31;51087;55.718;21.122;2023-04-03T11:04:20;16.73;27.67
64499;SHT31;51087;55.718;21.122;2023-04-03T11:07:03;14.88;29.33
64499;SHT31;51087;55.718;21.122;2023-04-03T11:09:39;11.20;35.25
64499;SHT31;51087;55.718;21.122;2023-04-03T11:12:21;10.18;37.11
64499;SHT31;51087;55.718;21.122;2023-04-03T11:14:50;10.31;36.64
64499;SHT31;51087;55.718;21.122;2023-04-03T11:22:30;17.42;26.96
64499;SHT31;51087;55.718;21.122;2023-04-03T11:25:19;19.81;24.21
64499;SHT31;51087;55.718;21.122;2023-04-03T11:33:37;14.55;30.07
64499;SHT31;51087;55.718;21.122;2023-04-03T11:36:19;17.12;27.96
64499;SHT31;51087;55.718;21.122;2023-04-03T11:38:47;20.10;24.53
64499;SHT31;51087;55.718;21.122;2023-04-03T11:41:14;17.45;30.16
64499;SHT31;51087;55.718;21.122;2023-04-03T11:43:43;17.20;33.36
64499;SHT31;51087;55.718;21.122;2023-04-03T11:46:20;15.81;35.50
64499;SHT31;51087;55.718;21.122;2023-04-03T11:48:48;14.01;38.65
64499;SHT31;51087;55.718;21.122;2023-04-03T11:53:46;14.18;36.44
64499;SHT31;51087;55.718;21.122;2023-04-03T12:01:57;10.78;42.56
64499;SHT31;51087;55.718;21.122;2023-04-03T12:04:27;10.80;43.52
64499;SHT31;51087;55.718;21.122;2023-04-03T12:06:59;12.07;40.99
64499;SHT31;51087;55.718;21.122;2023-04-03T12:09:35;10.92;42.23
64499;SHT31;51087;55.718;21.122;2023-04-03T12:14:55;9.24;46.62
64499;SHT31;51087;55.718;21.122;2023-04-03T12:17:25;8.21;49.21
64499;SHT31;51087;55.718;21.122;2023-04-03T12:19:51;7.21;51.21
64499;SHT31;51087;55.718;21.122;2023-04-03T12:22:18;6.62;54.26
64499;SHT31;51087;55.718;21.122;2023-04-03T12:24:48;7.15;54.23
64499;SHT31;51087;55.718;21.122;2023-04-03T12:35:36;11.05;43.54
64499;SHT31;51087;55.718;21.122;2023-04-03T12:46:21;9.75;43.84
64499;SHT31;51087;55.718;21.122;2023-04-03T12:48:54;8.52;46.96
64499;SHT31;51087;55.718;21.122;2023-04-03T12:51:25;8.82;47.42
64499;SHT31;51087;55.718;21.122;2023-04-03T12:53:58;8.82;47.44
64499;SHT31;51087;55.718;21.122;2023-04-03T12:56:30;8.28;48.24
64499;SHT31;51087;55.718;21.122;2023-04-03T13:01:43;10.97;43.06
64499;SHT31;51087;55.718;21.122;2023-04-03T13:04:10;11.89;40.29
64499;SHT31;51087;55.718;21.122;2023-04-03T13:06:44;13.63;37.81
64499;SHT31;51087;55.718;21.122;2023-04-03T13:09:21;13.30;37.68
64499;SHT31;51087;55.718;21.122;2023-04-03T13:11:49;12.22;39.92
64499;SHT31;51087;55.718;21.122;2023-04-03T13:14:21;10.37;42.24
64499;SHT31;51087;55.718;21.122;2023-04-03T13:16:57;11.34;41.78
64499;SHT31;51087;55.718;21.122;2023-04-03T13:19:27;13.18;37.89
64499;SHT31;51087;55.718;21.122;2023-04-03T13:22:04;15.66;34.05
64499;SHT31;51087;55.718;21.122;2023-04-03T13:24:33;15.69;32.46
64499;SHT31;51087;55.718;21.122;2023-04-03T13:27:00;12.78;36.84
64499;SHT31;51087;55.718;21.122;2023-04-03T13:29:29;13.03;35.77
64499;SHT31;51087;55.718;21.122;2023-04-03T13:31:56;13.58;35.81
64499;SHT31;51087;55.718;21.122;2023-04-03T13:34:25;12.87;36.68
64499;SHT31;51087;55.718;21.122;2023-04-03T13:41:52;15.40;33.40
64499;SHT31;51087;55.718;21.122;2023-04-03T13:46:44;17.27;30.75
64499;SHT31;51087;55.718;21.122;2023-04-03T13:49:22;17.06;30.85
64499;SHT31;51087;55.718;21.122;2023-04-03T13:51:53;17.66;30.10
64499;SHT31;51087;55.718;21.122;2023-04-03T13:54:23;16.33;31.85
64499;SHT31;51087;55.718;21.122;2023-04-03T13:56:56;14.12;35.08
64499;SHT31;51087;55.718;21.122;2023-04-03T13:59:35;14.97;34.04
64499;SHT31;51087;55.718;21.122;2023-04-03T14:04:32;14.98;33.18
64499;SHT31;51087;55.718;21.122;2023-04-03T14:06:59;13.47;35.85
64499;SHT31;51087;55.718;21.122;2023-04-03T14:09:26;12.74;37.06
64499;SHT31;51087;55.718;21.122;2023-04-03T14:11:54;11.89;38.47
64499;SHT31;51087;55.718;21.122;2023-04-03T14:14:24;11.17;40.10
64499;SHT31;51087;55.718;21.122;2023-04-03T14:16:55;10.91;40.74
64499;SHT31;51087;55.718;21.122;2023-04-03T14:19:32;10.91;42.30
64499;SHT31;51087;55.718;21.122;2023-04-03T14:22:03;10.92;42.12
64499;SHT31;51087;55.718;21.122;2023-04-03T14:24:31;10.92;41.18
64499;SHT31;51087;55.718;21.122;2023-04-03T14:26:57;11.33;40.51
64499;SHT31;51087;55.718;21.122;2023-04-03T14:29:23;10.40;42.14
64499;SHT31;51087;55.718;21.122;2023-04-03T14:31:49;10.09;42.68
64499;SHT31;51087;55.718;21.122;2023-04-03T14:34:15;9.30;44.69
64499;SHT31;51087;55.718;21.122;2023-04-03T14:36:43;9.17;44.45
64499;SHT31;51087;55.718;21.122;2023-04-03T14:39:18;8.58;45.92
64499;SHT31;51087;55.718;21.122;2023-04-03T14:41:44;8.62;46.20
64499;SHT31;51087;55.718;21.122;2023-04-03T14:44:10;8.17;47.26
64499;SHT31;51087;55.718;21.122;2023-04-03T14:46:38;8.68;46.74
64499;SHT31;51087;55.718;21.122;2023-04-03T14:49:13;8.83;45.12
64499;SHT31;51087;55.718;21.122;2023-04-03T14:51:39;9.03;45.15
64499;SHT31;51087;55.718;21.122;2023-04-03T14:54:12;8.99;45.37
64499;SHT31;51087;55.718;21.122;2023-04-03T14:56:38;9.07;44.71
64499;SHT31;51087;55.718;21.122;2023-04-03T14:59:04;9.42;44.23
64499;SHT31;51087;55.718;21.122;2023-04-03T15:01:34;9.47;43.50
64499;SHT31;51087;55.718;21.122;2023-04-03T15:04:00;9.96;41.90
64499;SHT31;51087;55.718;21.122;2023-04-03T15:06:25;10.14;42.38
64499;SHT31;51087;55.718;21.122;2023-04-03T15:08:51;10.24;42.02
64499;SHT31;51087;55.718;21.122;2023-04-03T15:11:16;11.54;39.79
64499;SHT31;51087;55.718;21.122;2023-04-03T15:13:42;11.34;40.33
64499;SHT31;51087;55.718;21.122;2023-04-03T15:16:16;11.03;40.73
64499;SHT31;51087;55.718;21.122;2023-04-03T15:18:42;10.49;42.32
64499;SHT31;51087;55.718;21.122;2023-04-03T15:21:08;10.38;42.83
64499;SHT31;51087;55.718;21.122;2023-04-03T15:23:34;9.17;44.28
64499;SHT31;51087;55.718;21.122;2023-04-03T15:25:59;9.28;44.52
64499;SHT31;51087;55.718;21.122;2023-04-03T15:28:30;8.93;45.13
64499;SHT31;51087;55.718;21.122;2023-04-03T15:30:57;8.66;46.19
64499;SHT31;51087;55.718;21.122;2023-04-03T15:33:23;9.06;44.71
64499;SHT31;51087;55.718;21.122;2023-04-03T15:35:49;9.69;43.76
64499;SHT31;51087;55.718;21.122;2023-04-03T15:38:14;8.23;45.84
64499;SHT31;51087;55.718;21.122;2023-04-03T15:40:40;7.32;47.77
64499;SHT31;51087;55.718;21.122;2023-04-03T15:43:07;6.11;51.13
64499;SHT31;51087;55.718;21.122;2023-04-03T15:45:34;5.52;53.31
64499;SHT31;51087;55.718;21.122;2023-04-03T15:48:01;5.13;54.90
64499;SHT31;51087;55.718;21.122;2023-04-03T15:50:27;4.66;56.93
64499;SHT31;51087;55.718;21.122;2023-04-03T15:52:53;4.46;58.00
64499;SHT31;51087;55.718;21.122;2023-04-03T15:55:24;4.03;59.25
64499;SHT31;51087;55.718;21.122;2023-04-03T15:57:50;3.93;59.86
64499;SHT31;51087;55.718;21.122;2023-04-03T16:00:16;3.66;61.00
64499;SHT31;51087;55.718;21.122;2023-04-03T16:02:44;3.51;61.93
64499;SHT31;51087;55.718;21.122;2023-04-03T16:05:11;3.40;62.55
64499;SHT31;51087;55.718;21.122;2023-04-03T16:07:40;3.25;63.42
64499;SHT31;51087;55.718;21.122;2023-04-03T16:10:07;3.07;64.20
64499;SHT31;51087;55.718;21.122;2023-04-03T16:12:33;2.96;64.73
64499;SHT31;51087;55.718;21.122;2023-04-03T16:14:59;2.86;65.27
64499;SHT31;51087;55.718;21.122;2023-04-03T16:17:26;2.73;65.75
64499;SHT31;51087;55.718;21.122;2023-04-03T16:19:53;2.63;66.73
64499;SHT31;51087;55.718;21.122;2023-04-03T16:22:19;2.59;67.16
64499;SHT31;51087;55.718;21.122;2023-04-03T16:24:46;2.60;66.69
64499;SHT31;51087;55.718;21.122;2023-04-03T16:27:11;2.50;66.61
64499;SHT31;51087;55.718;21.122;2023-04-03T16:29:42;2.39;67.05
64499;SHT31;51087;55.718;21.122;2023-04-03T16:32:08;2.32;67.42
64499;SHT31;51087;55.718;21.122;2023-04-03T16:34:34;2.22;67.18
64499;SHT31;51087;55.718;21.122;2023-04-03T16:37:00;2.10;66.90
64499;SHT31;51087;55.718;21.122;2023-04-03T16:39:26;2.07;67.12
64499;SHT31;51087;55.718;21.122;2023-04-03T16:41:52;1.98;67.53
64499;SHT31;51087;55.718;21.122;2023-04-03T16:44:17;1.83;67.57
64499;SHT31;51087;55.718;21.122;2023-04-03T16:46:43;1.76;67.20
64499;SHT31;51087;55.718;21.122;2023-04-03T16:49:09;1.67;67.45
64499;SHT31;51087;55.718;21.122;2023-04-03T16:51:34;1.63;67.44
64499;SHT31;51087;55.718;21.122;2023-04-03T16:54:00;1.56;68.05
64499;SHT31;51087;55.718;21.122;2023-04-03T16:56:26;1.42;68.08
64499;SHT31;51087;55.718;21.122;2023-04-03T16:58:54;1.38;68.63